Fallston, North Carolina
Current Conditions -  °F | °C
As of 1:15 AM on Thursday 29 Jan 2015 (Local Time) from KEHO Reporting Station
Clear Clear  
Wind Chill: 28°   Ceiling: Unl
Heat Index: 28°   Visibility: 10mi
Dew Point: 21°   Wind: 3mph
Humidity: 74%   Direction: 30°NNE
Pressure: 30.31"   Gusts: NA
Location:  35.43°N, 81.5°W
Report Text: KEHO 290615Z AUTO 03003KT 10SM CLR M02/M06 A3031 RMK AO2 T10231063
Loading
Personal Weather Stations






























Interactive Weather Map New forecast layout! Learn more

10-Day Weather Forecast

Advertisements
Track Severe Weather on mobile